Time;durP1;ratioP1;P1;durP2;ratioP2;P2;SDS_P1;SDS_P2;PMS_P1;PMS_P2;Temp;Humidity;BMP_temperature;BMP_pressure;BME280_temperature;BME280_humidity;BME280_pressure;Samples;Min_cycle;Max_cycle;Signal;HPM_P1;HPM_P2
2023/05/20 00:02:03;;;;;;;14.90;9.20;;;;;;;16.66;50.05;101125.92;1771317;80;21197;-56
2023/05/20 00:05:10;;;;;;;12.13;9.23;;;;;;;16.64;50.21;101128.53;1770264;80;21217;-55
2023/05/20 00:08:16;;;;;;;14.55;8.98;;;;;;;16.62;50.36;101125.97;1782944;79;21324;-54
2023/05/20 00:11:23;;;;;;;12.18;9.25;;;;;;;16.58;50.53;101128.81;1770382;81;21228;-54
2023/05/20 00:14:29;;;;;;;12.23;9.00;;;;;;;16.56;50.69;101121.23;1770230;80;21205;-55
2023/05/20 00:17:35;;;;;;;14.18;8.95;;;;;;;16.53;50.86;101120.25;1770961;80;21177;-55
2023/05/20 00:20:42;;;;;;;16.42;8.70;;;;;;;16.49;51.04;101115.31;1736483;82;21254;-55
2023/05/20 00:23:48;;;;;;;15.25;10.03;;;;;;;16.47;51.21;101117.41;1736397;82;21255;-54
2023/05/20 00:26:54;;;;;;;14.70;9.23;;;;;;;16.43;51.37;101114.14;1736440;82;21270;-55
2023/05/20 00:30:01;;;;;;;16.57;9.48;;;;;;;16.40;51.58;101112.64;1736374;82;21219;-55
2023/05/20 00:33:07;;;;;;;17.35;9.30;;;;;;;16.38;51.75;101124.41;1736540;82;21291;-56
2023/05/20 00:36:13;;;;;;;17.37;10.03;;;;;;;16.36;51.91;101120.97;1736707;81;21215;-55
2023/05/20 00:39:20;;;;;;;13.55;9.33;;;;;;;16.33;52.06;101113.07;1736271;82;21216;-54
2023/05/20 00:42:31;;;;;;;14.13;9.55;;;;;;;16.30;52.20;101113.98;1736427;82;21235;-54
2023/05/20 00:45:37;;;;;;;11.55;9.05;;;;;;;16.27;52.39;101121.28;1736358;82;21212;-54
2023/05/20 00:48:49;;;;;;;13.38;9.55;;;;;;;16.24;52.59;101117.02;1736498;82;21204;-54
2023/05/20 00:51:56;;;;;;;12.53;9.48;;;;;;;16.23;52.79;101121.36;1736431;82;21737;-55
2023/05/20 00:55:03;;;;;;;14.47;9.68;;;;;;;16.21;52.95;101114.64;1736847;82;21772;-55
2023/05/20 00:58:08;;;;;;;11.97;9.25;;;;;;;16.18;53.09;101116.94;1736726;82;21216;-55
2023/05/20 01:01:14;;;;;;;12.25;9.33;;;;;;;16.16;53.25;101113.50;1736501;82;21164;-54
2023/05/20 01:04:20;;;;;;;18.42;9.70;;;;;;;16.16;53.42;101116.27;1736380;82;21247;-54
2023/05/20 01:07:26;;;;;;;14.63;10.45;;;;;;;16.14;53.54;101112.31;1736419;82;21199;-55
2023/05/20 01:10:31;;;;;;;13.90;10.10;;;;;;;16.12;53.70;101110.30;1736519;82;21168;-55
2023/05/20 01:13:43;;;;;;;14.58;9.10;;;;;;;16.08;53.81;101108.95;1736430;82;21211;-55
2023/05/20 01:16:48;;;;;;;17.48;10.10;;;;;;;16.04;53.97;101104.87;1737228;82;21780;-55
2023/05/20 01:19:55;;;;;;;13.85;10.35;;;;;;;16.03;54.17;101105.91;1747828;79;21189;-54
2023/05/20 01:23:03;;;;;;;12.75;10.13;;;;;;;15.99;54.27;101104.59;1770455;80;21585;-54
2023/05/20 01:26:12;;;;;;;17.02;11.03;;;;;;;15.95;54.39;101106.02;1770359;79;21745;-55
2023/05/20 01:29:18;;;;;;;15.90;10.43;;;;;;;15.91;54.54;101104.70;1770162;81;21702;-54
2023/05/20 01:32:31;;;;;;;12.95;10.38;;;;;;;15.88;54.70;101105.61;1770097;81;21240;-56
2023/05/20 01:35:36;;;;;;;13.00;10.05;;;;;;;15.87;54.87;101111.64;1770141;79;21797;-55
2023/05/20 01:38:42;;;;;;;14.83;11.83;;;;;;;15.85;55.02;101107.38;1770870;80;21729;-56
2023/05/20 01:41:49;;;;;;;14.10;10.38;;;;;;;15.83;55.17;101103.95;1770291;79;21223;-55
2023/05/20 01:44:55;;;;;;;14.00;10.60;;;;;;;15.82;55.27;101100.34;1770265;80;21244;-55
2023/05/20 01:48:01;;;;;;;15.88;10.60;;;;;;;15.79;55.43;101099.87;1771027;79;21248;-55
2023/05/20 01:51:07;;;;;;;14.00;11.08;;;;;;;15.78;55.57;101107.28;1770181;80;21185;-56
2023/05/20 01:54:14;;;;;;;21.33;12.00;;;;;;;15.77;55.68;101100.58;1770370;80;21181;-55
2023/05/20 01:57:20;;;;;;;11.30;9.98;;;;;;;15.73;55.76;101100.64;1770255;81;21706;-55
2023/05/20 02:00:27;;;;;;;17.02;10.35;;;;;;;15.69;55.90;101099.30;1770177;81;21242;-55
2023/05/20 02:03:34;;;;;;;15.98;11.30;;;;;;;15.65;56.04;101100.20;1770257;81;21251;-55
2023/05/20 02:06:40;;;;;;;15.70;11.28;;;;;;;15.61;56.17;101105.78;1771884;79;21181;-55
2023/05/20 02:09:47;;;;;;;19.65;11.68;;;;;;;15.55;56.28;101107.92;1770054;80;21209;-55
2023/05/20 02:12:54;;;;;;;15.80;10.85;;;;;;;15.51;56.46;101110.72;1770071;81;21182;-55
2023/05/20 02:15:59;;;;;;;16.37;11.55;;;;;;;15.47;56.62;101110.78;1770251;80;21220;-55
2023/05/20 02:19:05;;;;;;;12.80;11.00;;;;;;;15.45;56.73;101114.24;1770158;81;21244;-55
2023/05/20 02:22:11;;;;;;;20.75;12.18;;;;;;;15.40;56.90;101116.70;1770017;79;21750;-54
2023/05/20 02:25:16;;;;;;;16.05;11.48;;;;;;;15.40;57.06;101117.22;1770409;80;21179;-55
2023/05/20 02:28:16;;;;;;;16.77;11.95;;;;;;;15.38;57.20;101124.31;1769919;80;21213;-55
2023/05/20 02:31:23;;;;;;;14.55;11.53;;;;;;;15.35;57.32;101115.00;1769966;80;21178;-54
2023/05/20 02:34:30;;;;;;;16.27;12.35;;;;;;;15.33;57.48;101124.02;1770686;80;21256;-55
2023/05/20 02:37:34;;;;;;;18.50;11.57;;;;;;;15.32;57.61;101123.66;1770315;81;21194;-54
2023/05/20 02:40:41;;;;;;;16.70;12.13;;;;;;;15.31;57.76;101120.58;1770078;80;21177;-54
2023/05/20 02:43:46;;;;;;;14.18;11.40;;;;;;;15.31;57.88;101126.09;1770538;80;21271;-55
2023/05/20 02:46:52;;;;;;;14.43;12.35;;;;;;;15.32;58.04;101122.83;1769783;80;21683;-54
2023/05/20 02:49:57;;;;;;;23.40;12.73;;;;;;;15.33;58.19;101130.91;1770382;80;21209;-56
2023/05/20 02:53:02;;;;;;;15.25;12.18;;;;;;;15.37;58.34;101132.23;1770395;80;21193;-54
2023/05/20 02:56:09;;;;;;;15.50;11.83;;;;;;;15.40;58.48;101129.64;1770428;80;21225;-55
2023/05/20 02:59:15;;;;;;;16.27;11.88;;;;;;;15.41;58.59;101130.86;1780982;80;21777;-55
2023/05/20 03:02:22;;;;;;;18.30;12.28;;;;;;;15.45;58.73;101132.69;1770402;81;21761;-55
2023/05/20 03:05:28;;;;;;;16.02;12.37;;;;;;;15.50;58.85;101126.09;1770504;80;21241;-55
2023/05/20 03:08:35;;;;;;;14.90;12.73;;;;;;;15.53;58.98;101129.33;1768328;81;21181;-55
2023/05/20 03:11:41;;;;;;;16.52;12.85;;;;;;;15.57;59.09;101125.68;1770002;80;21248;-54
2023/05/20 03:14:46;;;;;;;18.73;13.15;;;;;;;15.62;59.24;101125.42;1770057;79;21201;-55
2023/05/20 03:17:53;;;;;;;16.55;12.53;;;;;;;15.67;59.34;101123.47;1770620;80;21374;-56
2023/05/20 03:20:59;;;;;;;16.93;12.35;;;;;;;15.72;59.48;101123.75;1770185;79;21189;-56
2023/05/20 03:24:05;;;;;;;18.55;12.55;;;;;;;15.78;59.59;101118.84;1770045;79;21820;-56
2023/05/20 03:27:11;;;;;;;16.57;13.20;;;;;;;15.83;59.67;101121.89;1759389;80;21327;-55
2023/05/20 03:30:19;;;;;;;17.25;12.75;;;;;;;15.89;59.82;101121.98;1770155;80;21320;-55
2023/05/20 03:33:26;;;;;;;19.90;13.48;;;;;;;15.95;59.90;101130.88;1770250;80;21217;-56
2023/05/20 03:36:31;;;;;;;19.98;14.58;;;;;;;16.02;60.00;101130.45;1770809;79;21185;-55
2023/05/20 03:39:37;;;;;;;18.55;14.10;;;;;;;16.08;60.08;101126.04;1770342;80;21208;-55
2023/05/20 03:42:44;;;;;;;17.75;14.05;;;;;;;16.14;60.20;101119.22;1770393;80;21185;-56
2023/05/20 03:45:50;;;;;;;21.50;14.50;;;;;;;16.19;60.28;101126.41;1770547;79;21182;-54
2023/05/20 03:48:56;;;;;;;18.77;13.15;;;;;;;16.25;60.42;101120.09;1770390;80;21213;-55
2023/05/20 03:52:02;;;;;;;21.97;13.43;;;;;;;16.34;60.56;101127.24;1770248;81;21180;-55
2023/05/20 03:55:08;;;;;;;21.02;12.85;;;;;;;16.44;60.70;101131.07;1770204;79;21173;-57
2023/05/20 03:58:14;;;;;;;14.50;12.90;;;;;;;16.53;60.81;101130.44;1770309;81;21217;-55
2023/05/20 04:01:24;;;;;;;18.82;13.20;;;;;;;16.62;60.93;101128.73;1770279;80;21181;-55
2023/05/20 04:04:30;;;;;;;22.42;13.93;;;;;;;16.72;61.04;101134.80;1769949;80;21225;-55
2023/05/20 04:07:36;;;;;;;24.15;14.80;;;;;;;16.83;61.14;101127.36;1768258;80;21733;-57
2023/05/20 04:10:43;;;;;;;27.90;19.45;;;;;;;16.94;61.19;101128.73;1768476;80;21726;-55
2023/05/20 04:13:53;;;;;;;34.45;22.07;;;;;;;17.03;61.26;101127.00;1768620;80;21335;-54
2023/05/20 04:17:13;;;;;;;21.55;16.80;;;;;;;17.11;61.34;101135.16;1766882;80;21251;-53
2023/05/20 04:20:19;;;;;;;19.32;15.32;;;;;;;17.23;61.40;101136.86;1763287;80;21259;-54
2023/05/20 04:23:29;;;;;;;23.70;16.20;;;;;;;17.32;61.46;101138.42;1700661;80;21190;-56
2023/05/20 04:26:34;;;;;;;22.93;15.72;;;;;;;17.40;61.51;101142.42;1679040;84;21203;-56
2023/05/20 04:29:44;;;;;;;24.77;13.45;;;;;;;17.51;61.60;101145.53;1695941;83;21225;-55
2023/05/20 04:32:49;;;;;;;19.25;12.78;;;;;;;17.61;61.66;101149.33;1704295;83;21193;-55
2023/05/20 04:35:57;;;;;;;17.75;12.40;;;;;;;17.72;61.72;101148.76;1720257;81;21336;-55
2023/05/20 04:39:04;;;;;;;25.72;13.32;;;;;;;17.82;61.78;101147.88;1711606;83;21189;-56
2023/05/20 04:42:13;;;;;;;14.90;12.78;;;;;;;17.92;61.83;101142.80;1727742;82;21202;-57
2023/05/20 04:45:22;;;;;;;18.23;13.25;;;;;;;18.02;61.87;101140.52;1784265;79;21188;-55
2023/05/20 04:48:27;;;;;;;19.20;14.28;;;;;;;18.12;61.94;101141.00;1774851;79;21578;-57
2023/05/20 04:51:34;;;;;;;18.70;13.45;;;;;;;18.21;61.95;101136.11;1768287;81;21257;-55
2023/05/20 04:54:42;;;;;;;20.82;13.05;;;;;;;18.28;62.00;101137.88;1734804;81;21220;-56
2023/05/20 04:57:49;;;;;;;15.53;12.45;;;;;;;18.39;62.05;101141.98;1755157;81;21189;-54
2023/05/20 05:00:55;;;;;;;21.60;11.97;;;;;;;18.46;62.11;101144.23;1769540;81;21241;-55
2023/05/20 05:04:01;;;;;;;17.50;13.38;;;;;;;18.55;62.19;101141.06;1769323;81;21876;-55
2023/05/20 05:07:07;;;;;;;17.45;12.05;;;;;;;18.65;62.24;101137.89;1769352;79;21181;-56
2023/05/20 05:10:15;;;;;;;21.57;12.43;;;;;;;18.73;62.24;101141.33;1769167;81;21197;-55
2023/05/20 05:13:20;;;;;;;17.92;12.73;;;;;;;18.83;62.31;101145.08;1769073;79;21189;-55
2023/05/20 05:16:27;;;;;;;16.20;11.80;;;;;;;18.92;62.41;101141.89;1769720;81;21236;-55
2023/05/20 05:19:32;;;;;;;16.95;10.78;;;;;;;19.00;62.37;101140.83;1769068;81;21730;-55
2023/05/20 05:22:40;;;;;;;18.57;12.00;;;;;;;19.07;62.42;101137.02;1769800;80;21190;-55
2023/05/20 05:25:47;;;;;;;14.90;11.18;;;;;;;19.17;62.47;101144.37;1768342;80;21233;-55
2023/05/20 05:28:52;;;;;;;14.03;11.83;;;;;;;19.26;62.48;101144.50;1770598;80;21213;-55
2023/05/20 05:31:57;;;;;;;15.20;11.80;;;;;;;19.38;62.53;101146.11;1767121;80;21511;-56
2023/05/20 05:35:02;;;;;;;17.50;11.20;;;;;;;19.51;62.54;101146.63;1770132;81;21264;-54
2023/05/20 05:38:07;;;;;;;17.17;11.38;;;;;;;19.60;62.48;101149.52;1770995;80;21832;-56
2023/05/20 05:41:13;;;;;;;18.77;11.40;;;;;;;19.68;62.42;101155.69;1770458;80;21193;-56
2023/05/20 05:44:19;;;;;;;15.75;12.15;;;;;;;19.74;62.39;101147.87;1770437;80;21240;-55
2023/05/20 05:47:30;;;;;;;12.47;10.85;;;;;;;19.82;62.41;101144.03;1768109;79;21765;-55
2023/05/20 05:50:33;;;;;;;14.15;10.88;;;;;;;19.92;62.43;101148.58;1766954;80;21181;-55
2023/05/20 05:53:40;;;;;;;17.23;11.25;;;;;;;20.02;62.42;101151.77;1766745;80;21184;-55
2023/05/20 05:56:46;;;;;;;14.50;10.40;;;;;;;20.13;62.37;101153.87;1766708;81;21753;-56
2023/05/20 05:59:53;;;;;;;15.35;11.08;;;;;;;20.20;62.29;101147.80;1766803;80;21267;-56
2023/05/20 06:03:10;;;;;;;15.43;10.80;;;;;;;20.27;62.28;101149.99;1766417;81;21297;-56
2023/05/20 06:06:18;;;;;;;18.30;10.30;;;;;;;20.34;62.24;101156.39;1766946;81;21172;-57
2023/05/20 06:09:24;;;;;;;14.40;9.70;;;;;;;20.38;62.14;101150.16;1766304;81;21560;-55
2023/05/20 06:12:30;;;;;;;14.13;9.23;;;;;;;20.45;62.15;101151.00;1766293;80;21248;-55
2023/05/20 06:15:37;;;;;;;18.95;10.35;;;;;;;20.53;62.08;101144.32;1766878;80;21172;-57
2023/05/20 06:18:44;;;;;;;13.72;9.88;;;;;;;20.63;62.10;101148.84;1766747;80;22021;-54
2023/05/20 06:21:51;;;;;;;11.22;9.50;;;;;;;20.72;62.05;101140.58;1767188;80;21180;-55
2023/05/20 06:24:59;;;;;;;15.85;10.40;;;;;;;20.82;62.03;101145.09;1765546;80;21756;-55
2023/05/20 06:28:07;;;;;;;10.95;9.03;;;;;;;20.91;61.94;101152.13;1766849;80;21255;-55
2023/05/20 06:31:14;;;;;;;11.48;9.25;;;;;;;21.00;61.91;101149.41;1766600;80;21192;-55
2023/05/20 06:34:22;;;;;;;13.85;8.80;;;;;;;21.11;61.86;101151.99;1766851;80;21357;-55
2023/05/20 06:37:28;;;;;;;10.53;8.95;;;;;;;21.22;61.73;101159.09;1766718;80;21267;-54
2023/05/20 06:40:35;;;;;;;13.53;8.65;;;;;;;21.29;61.55;101154.86;1766462;81;21718;-55
2023/05/20 06:43:42;;;;;;;13.88;8.35;;;;;;;21.38;61.48;101157.14;1767341;80;21201;-56
2023/05/20 06:47:06;;;;;;;8.45;7.58;;;;;;;21.45;61.34;101161.26;1768256;80;21182;-55
2023/05/20 06:50:15;;;;;;;16.30;7.92;;;;;;;21.51;61.19;101162.59;1769493;79;21158;-55
2023/05/20 06:53:22;;;;;;;12.85;8.50;;;;;;;21.57;61.14;101160.81;1770750;80;21185;-55
2023/05/20 06:56:29;;;;;;;13.60;8.15;;;;;;;21.67;61.07;101159.23;1770236;80;21324;-56
2023/05/20 06:59:35;;;;;;;11.55;7.75;;;;;;;21.77;60.97;101160.97;1769775;80;21217;-55
2023/05/20 07:02:44;;;;;;;13.25;8.25;;;;;;;21.85;60.84;101148.13;1770365;80;21323;-56
2023/05/20 07:05:51;;;;;;;16.27;9.18;;;;;;;21.93;60.75;101147.83;1770021;80;21240;-57
2023/05/20 07:08:59;;;;;;;14.03;8.00;;;;;;;22.06;60.67;101150.47;1754368;81;21868;-58
2023/05/20 07:12:07;;;;;;;17.60;8.55;;;;;;;22.17;60.55;101148.84;1768888;80;21220;-55
2023/05/20 07:15:14;;;;;;;14.03;8.60;;;;;;;22.23;60.39;101141.78;1770837;80;21272;-56
2023/05/20 07:18:21;;;;;;;10.43;7.60;;;;;;;22.33;60.25;101137.58;1770187;80;21173;-55
2023/05/20 07:21:27;;;;;;;21.85;8.40;;;;;;;22.41;60.17;101131.15;1770068;81;21216;-54
2023/05/20 07:24:49;;;;;;;12.10;8.20;;;;;;;22.52;60.00;101137.90;1726753;82;21217;-55
2023/05/20 07:27:56;;;;;;;10.75;7.92;;;;;;;22.60;59.89;101133.39;1768771;79;21391;-54
2023/05/20 07:31:04;;;;;;;13.83;7.78;;;;;;;22.68;59.73;101136.71;1769890;80;21170;-55
2023/05/20 07:34:11;;;;;;;12.33;7.03;;;;;;;22.73;59.54;101138.25;1731573;82;21204;-56
2023/05/20 07:37:18;;;;;;;10.00;6.90;;;;;;;22.79;59.41;101135.91;1739640;82;21221;-56
2023/05/20 07:40:26;;;;;;;10.03;7.35;;;;;;;22.88;59.26;101136.44;1739528;82;21339;-57
2023/05/20 07:43:32;;;;;;;10.95;6.80;;;;;;;22.94;59.05;101143.32;1731528;81;21228;-55
2023/05/20 07:46:41;;;;;;;10.15;6.65;;;;;;;22.97;58.83;101133.59;1740211;82;21844;-54
2023/05/20 07:49:48;;;;;;;13.18;6.87;;;;;;;23.01;58.76;101137.06;1739727;82;21853;-56
2023/05/20 07:52:55;;;;;;;11.10;6.50;;;;;;;23.10;58.60;101130.61;1731277;82;21213;-55
2023/05/20 07:56:02;;;;;;;12.18;5.92;;;;;;;23.19;58.41;101123.57;1747744;81;21233;-56
2023/05/20 07:59:08;;;;;;;10.38;6.12;;;;;;;23.30;58.19;101129.75;1754084;80;21196;-58
2023/05/20 08:02:16;;;;;;;10.45;6.17;;;;;;;23.37;57.95;101125.75;1739107;81;21189;-55
2023/05/20 08:05:22;;;;;;;10.18;6.20;;;;;;;23.40;57.65;101123.03;1762407;80;21169;-55
2023/05/20 08:08:33;;;;;;;10.58;6.10;;;;;;;23.47;57.49;101130.20;1770457;80;21252;-57
2023/05/20 08:11:41;;;;;;;;;;;;;;;23.56;57.33;101130.70;1771209;80;21220;-55
2023/05/20 08:14:46;;;;;;;10.13;5.58;;;;;;;23.68;57.14;101132.94;1770929;80;20198;-57
2023/05/20 08:17:53;;;;;;;8.00;5.55;;;;;;;23.80;56.95;101140.77;1769942;80;21165;-57
2023/05/20 08:21:00;;;;;;;12.18;5.92;;;;;;;23.87;56.62;101133.12;1770214;80;21189;-55
2023/05/20 08:24:06;;;;;;;6.75;5.33;;;;;;;23.94;56.31;101130.20;1769595;80;21182;-55
2023/05/20 08:27:13;;;;;;;13.88;5.70;;;;;;;24.02;56.04;101134.05;1769608;80;21248;-57
2023/05/20 08:30:20;;;;;;;10.13;6.00;;;;;;;24.09;55.86;101128.62;1735652;82;21184;-55
2023/05/20 08:33:26;;;;;;;8.08;5.60;;;;;;;24.20;55.72;101123.55;1735919;81;21208;-55
2023/05/20 08:36:32;;;;;;;10.88;5.35;;;;;;;24.28;55.38;101121.77;1735730;81;22079;-55
2023/05/20 08:39:38;;;;;;;10.18;5.50;;;;;;;24.35;55.14;101122.48;1727426;82;21725;-56
2023/05/20 08:42:53;;;;;;;9.15;4.92;;;;;;;24.46;54.93;101123.00;1733348;82;21184;-55
2023/05/20 08:46:01;;;;;;;11.97;5.97;;;;;;;24.56;54.58;101120.38;1727820;81;21637;-54
2023/05/20 08:49:06;;;;;;;9.58;5.53;;;;;;;24.65;54.23;101122.25;1706534;82;21200;-56
2023/05/20 08:52:12;;;;;;;13.88;6.05;;;;;;;24.72;54.02;101123.82;1671804;86;21742;-55
2023/05/20 08:55:25;;;;;;;9.73;6.03;;;;;;;24.77;53.72;101118.86;1705761;84;21209;-55
2023/05/20 08:58:34;;;;;;;8.13;5.75;;;;;;;24.80;53.57;101122.02;1672106;84;21288;-56
2023/05/20 09:01:43;;;;;;;12.45;5.60;;;;;;;24.92;53.38;101117.22;1706711;82;21168;-57
2023/05/20 09:04:52;;;;;;;10.90;5.47;;;;;;;25.01;53.13;101131.11;1683372;84;21785;-55
2023/05/20 09:07:58;;;;;;;12.25;6.17;;;;;;;25.10;52.78;101122.30;1733657;81;21257;-57
2023/05/20 09:11:04;;;;;;;10.28;5.92;;;;;;;25.18;52.67;101126.09;1733605;82;21248;-55
2023/05/20 09:14:12;;;;;;;8.45;5.67;;;;;;;25.27;52.30;101118.95;1734204;81;21224;-55
2023/05/20 09:17:18;;;;;;;8.65;5.47;;;;;;;25.35;52.09;101126.97;1734488;82;21193;-54
2023/05/20 09:20:24;;;;;;;14.30;5.72;;;;;;;25.43;51.89;101114.79;1734484;82;21857;-56
2023/05/20 09:23:30;;;;;;;10.65;5.53;;;;;;;25.49;51.54;101116.56;1734563;81;21228;-56
2023/05/20 09:26:34;;;;;;;13.45;5.70;;;;;;;25.53;51.34;101108.50;1734623;82;21205;-56
2023/05/20 09:29:42;;;;;;;11.12;5.35;;;;;;;25.61;51.10;101122.92;1751553;80;21667;-56
2023/05/20 09:32:50;;;;;;;12.35;5.40;;;;;;;25.66;50.76;101103.37;1770084;81;21251;-55
2023/05/20 09:35:57;;;;;;;13.22;5.50;;;;;;;25.76;50.66;101104.94;1770329;81;21367;-55
2023/05/20 09:39:07;;;;;;;10.40;5.03;;;;;;;25.88;50.35;101104.80;1770153;81;21220;-55
2023/05/20 09:42:34;;;;;;;8.80;4.70;;;;;;;25.91;50.01;101103.73;1770266;81;21256;-56
2023/05/20 09:45:41;;;;;;;8.98;4.62;;;;;;;25.92;49.70;101097.04;1770248;81;21201;-56
2023/05/20 09:48:48;;;;;;;10.95;5.20;;;;;;;25.94;49.36;101100.98;1770386;81;21216;-56
2023/05/20 09:51:56;;;;;;;10.58;5.00;;;;;;;25.94;49.04;101096.20;1770480;81;21157;-56
2023/05/20 09:55:01;;;;;;;9.95;5.40;;;;;;;26.02;48.81;101094.38;1770241;80;21201;-56
2023/05/20 09:58:01;;;;;;;10.78;5.00;;;;;;;26.04;48.57;101086.56;1770160;81;21371;-57
2023/05/20 10:01:13;;;;;;;6.42;4.90;;;;;;;26.15;48.40;101093.15;1770254;81;21244;-54
2023/05/20 10:04:18;;;;;;;8.30;5.00;;;;;;;26.25;48.08;101096.09;1753807;80;21220;-55
2023/05/20 10:07:56;;;;;;;11.25;5.80;;;;;;;26.40;47.88;101094.90;1767383;80;21275;-57
2023/05/20 10:11:13;;;;;;;10.60;5.40;;;;;;;26.53;47.48;101090.25;1764112;81;21173;-55
2023/05/20 10:14:47;;;;;;;7.65;5.15;;;;;;;26.58;47.18;101086.11;1769977;80;21730;-56
2023/05/20 10:18:23;;;;;;;10.65;4.87;;;;;;;26.67;46.94;101093.55;1760911;81;21184;-54
2023/05/20 10:21:30;;;;;;;8.45;4.65;;;;;;;26.73;46.64;101082.66;1769000;80;21181;-55
2023/05/20 10:24:45;;;;;;;8.55;4.70;;;;;;;26.78;46.33;101082.17;1769852;81;21208;-55
2023/05/20 10:27:53;;;;;;;8.95;4.78;;;;;;;26.87;46.13;101079.16;1767679;80;21169;-59
2023/05/20 10:30:59;;;;;;;13.58;5.00;;;;;;;26.95;45.84;101074.45;1769407;79;21212;-57
2023/05/20 10:34:06;;;;;;;7.72;4.90;;;;;;;26.98;45.49;101073.06;1770180;79;21204;-55
2023/05/20 10:37:07;;;;;;;9.58;4.92;;;;;;;27.03;45.28;101073.98;1769045;81;21362;-56
2023/05/20 10:40:15;;;;;;;8.48;4.67;;;;;;;27.14;45.10;101063.11;1769418;81;21769;-55
2023/05/20 10:43:26;;;;;;;7.22;4.40;;;;;;;27.24;44.86;101058.95;1745339;81;21313;-57
2023/05/20 10:46:34;;;;;;;8.35;4.95;;;;;;;27.33;44.56;101053.17;1769550;81;21237;-53
2023/05/20 10:49:42;;;;;;;6.42;4.72;;;;;;;27.38;44.29;101058.84;1770486;80;21774;-58
2023/05/20 10:52:48;;;;;;;6.87;4.90;;;;;;;27.44;44.01;101068.16;1770252;79;21177;-57
2023/05/20 10:55:59;;;;;;;9.55;4.37;;;;;;;27.46;43.67;101044.25;1763422;80;21256;-56
2023/05/20 10:59:07;;;;;;;10.35;4.90;;;;;;;27.50;43.43;101051.59;1770150;80;21750;-57
2023/05/20 11:02:12;;;;;;;7.33;4.62;;;;;;;27.59;43.24;101056.44;1763564;80;21256;-55
2023/05/20 11:05:20;;;;;;;8.55;5.30;;;;;;;27.73;42.98;101047.80;1770531;80;21193;-57
2023/05/20 11:08:24;;;;;;;9.70;4.72;;;;;;;27.86;42.76;101048.73;1769849;80;21248;-57
2023/05/20 11:11:30;;;;;;;10.90;4.75;;;;;;;27.97;42.49;101038.42;1769833;80;22005;-56
2023/05/20 11:14:38;;;;;;;14.28;5.28;;;;;;;28.06;42.26;101051.39;1769424;80;21272;-57
2023/05/20 11:17:48;;;;;;;8.30;4.47;;;;;;;28.16;42.08;101043.00;1765660;79;21201;-54
2023/05/20 11:20:54;;;;;;;12.70;5.00;;;;;;;28.29;41.83;101041.91;1765466;81;21189;-55
2023/05/20 11:23:59;;;;;;;7.30;4.92;;;;;;;28.32;41.50;101039.12;1769979;79;21225;-57
2023/05/20 11:27:04;;;;;;;7.35;4.58;;;;;;;28.39;41.31;101046.18;1769506;81;21209;-57
2023/05/20 11:30:12;;;;;;;9.68;4.40;;;;;;;28.44;41.08;101032.11;1761860;81;21778;-55
2023/05/20 11:33:18;;;;;;;8.10;4.60;;;;;;;28.47;40.84;101033.52;1770300;81;21709;-56
2023/05/20 11:36:27;;;;;;;9.98;4.75;;;;;;;28.62;40.62;101036.42;1769850;80;21201;-58
2023/05/20 11:39:39;;;;;;;12.30;5.35;;;;;;;28.64;40.29;101038.38;1770066;80;21268;-56
2023/05/20 11:42:44;;;;;;;6.25;5.03;;;;;;;28.61;40.10;101031.34;1769302;81;21197;-55
2023/05/20 11:45:53;;;;;;;11.55;4.95;;;;;;;28.61;39.77;101027.66;1769414;80;21832;-57
2023/05/20 11:49:01;;;;;;;10.48;4.50;;;;;;;28.61;39.57;101027.11;1770332;79;21209;-56
2023/05/20 11:52:07;;;;;;;11.20;4.53;;;;;;;28.70;39.46;101023.19;1769684;79;21232;-57
2023/05/20 11:55:20;;;;;;;9.95;4.42;;;;;;;28.79;39.31;101019.53;1749620;79;21166;-55
2023/05/20 11:58:32;;;;;;;8.53;4.80;;;;;;;28.83;39.05;101014.16;1781537;79;21177;-56
2023/05/20 12:01:43;;;;;;;8.18;4.58;;;;;;;28.92;38.90;101011.09;1761877;79;21165;-56
2023/05/20 12:04:49;;;;;;;10.98;4.95;;;;;;;29.09;38.64;101010.27;1738121;82;21284;-55
2023/05/20 12:07:58;;;;;;;9.75;4.70;;;;;;;29.08;38.30;101007.17;1739315;81;21725;-55
2023/05/20 12:11:04;;;;;;;7.95;4.67;;;;;;;29.02;37.97;101000.64;1739271;82;21256;-55
2023/05/20 12:14:12;;;;;;;12.20;5.10;;;;;;;28.73;37.54;100995.85;1738968;82;21260;-56
2023/05/20 12:17:19;;;;;;;10.82;4.47;;;;;;;28.67;37.57;100999.80;1738997;82;21217;-56
2023/05/20 12:20:27;;;;;;;9.90;4.35;;;;;;;28.64;37.46;100994.14;1740497;82;21844;-56
2023/05/20 12:23:35;;;;;;;6.97;4.30;;;;;;;28.62;37.27;100983.70;1739696;82;21224;-56
2023/05/20 12:26:42;;;;;;;9.60;4.17;;;;;;;28.75;37.23;100985.97;1739556;82;21185;-56
2023/05/20 12:29:49;;;;;;;5.40;4.20;;;;;;;28.83;37.05;100980.33;1739905;82;21279;-56
2023/05/20 12:32:56;;;;;;;7.62;4.67;;;;;;;28.80;36.84;100982.30;1739785;81;21221;-55
2023/05/20 12:36:03;;;;;;;5.95;4.50;;;;;;;28.77;36.72;100971.59;1739333;82;21502;-56
2023/05/20 12:39:09;;;;;;;6.45;4.28;;;;;;;28.70;36.52;100971.05;1739258;82;21268;-54
2023/05/20 12:42:16;;;;;;;7.42;4.47;;;;;;;28.72;36.48;100973.00;1732507;82;21749;-55
2023/05/20 12:45:21;;;;;;;10.75;4.85;;;;;;;28.77;36.37;100971.04;1738905;82;21173;-55
2023/05/20 12:48:27;;;;;;;12.25;5.15;;;;;;;28.73;36.56;100970.48;1732728;81;21212;-56
2023/05/20 12:51:34;;;;;;;9.05;4.60;;;;;;;28.65;36.17;100968.22;1739348;82;21420;-57
2023/05/20 12:54:41;;;;;;;12.68;4.65;;;;;;;28.45;36.02;100964.77;1739782;81;21738;-58
2023/05/20 12:57:50;;;;;;;10.55;5.65;;;;;;;28.14;35.96;100967.24;1739477;82;21209;-53
2023/05/20 13:00:55;;;;;;;7.50;5.25;;;;;;;28.13;36.08;100971.16;1752788;81;21225;-56
2023/05/20 13:04:02;;;;;;;8.03;4.58;;;;;;;28.25;36.12;100967.55;1745368;81;21251;-54
2023/05/20 13:07:09;;;;;;;9.03;4.80;;;;;;;28.41;36.08;100965.06;1763705;81;21223;-55
2023/05/20 13:10:17;;;;;;;9.25;4.58;;;;;;;28.47;35.92;100956.89;1763933;81;21233;-56
2023/05/20 13:13:23;;;;;;;9.48;5.33;;;;;;;28.39;35.79;100962.22;1764492;81;21224;-54
2023/05/20 13:16:31;;;;;;;7.45;4.85;;;;;;;28.19;35.61;100970.62;1766293;80;21766;-56
2023/05/20 13:19:37;;;;;;;6.50;4.42;;;;;;;27.84;35.44;100960.89;1769759;80;21268;-56
2023/05/20 13:22:44;;;;;;;10.85;5.17;;;;;;;27.56;35.43;100962.73;1769894;81;21181;-55
2023/05/20 13:25:53;;;;;;;8.50;5.08;;;;;;;27.36;35.50;100949.98;1763558;81;21180;-56
2023/05/20 13:28:59;;;;;;;8.03;4.87;;;;;;;27.25;35.61;100946.78;1735766;82;21208;-55
2023/05/20 13:32:06;;;;;;;10.00;5.28;;;;;;;27.10;35.63;100950.88;1734691;82;21768;-55
2023/05/20 13:35:15;;;;;;;6.12;4.47;;;;;;;27.11;35.78;100939.95;1740349;80;21702;-56
2023/05/20 13:38:22;;;;;;;6.17;4.55;;;;;;;27.14;35.87;100931.52;1736647;82;21207;-55
2023/05/20 13:41:29;;;;;;;13.20;5.22;;;;;;;27.22;35.91;100933.82;1762535;80;21224;-57
2023/05/20 13:44:36;;;;;;;11.63;5.80;;;;;;;27.27;35.90;100942.33;1730219;81;21219;-57
2023/05/20 13:47:43;;;;;;;7.50;4.90;;;;;;;27.12;35.80;100931.79;1755101;80;21161;-55
2023/05/20 13:50:50;;;;;;;8.25;4.70;;;;;;;26.88;35.80;100939.50;1742498;80;21585;-56
2023/05/20 13:53:55;;;;;;;5.58;4.50;;;;;;;26.73;35.90;100946.38;1739887;81;21264;-54
2023/05/20 13:57:06;;;;;;;5.90;4.03;;;;;;;26.61;36.00;100945.11;1740759;82;21774;-56
2023/05/20 14:00:10;;;;;;;11.03;5.17;;;;;;;26.52;36.10;100950.08;1741007;81;21268;-56
2023/05/20 14:03:16;;;;;;;8.73;5.17;;;;;;;26.46;36.23;100950.03;1731885;81;21213;-57
2023/05/20 14:06:23;;;;;;;14.40;5.22;;;;;;;26.42;36.28;100943.27;1740583;82;21169;-55
2023/05/20 14:09:31;;;;;;;13.58;5.15;;;;;;;26.53;36.43;100948.41;1741434;81;21881;-57
2023/05/20 14:12:37;;;;;;;9.18;4.83;;;;;;;26.66;36.44;100947.16;1764637;80;21322;-57
2023/05/20 14:15:44;;;;;;;10.90;5.25;;;;;;;26.83;36.48;100950.70;1797519;79;21317;-56
2023/05/20 14:18:52;;;;;;;7.80;4.65;;;;;;;27.02;36.45;100942.13;1797899;80;21349;-56
2023/05/20 14:22:00;;;;;;;8.88;4.60;;;;;;;27.13;36.36;100942.48;1798375;78;21232;-56